Time;durP1;ratioP1;P1;durP2;ratioP2;P2;SDS_P1;SDS_P2;PMS_P1;PMS_P2;Temp;Humidity;BMP_temperature;BMP_pressure;BME280_temperature;BME280_humidity;BME280_pressure;Samples;Min_cycle;Max_cycle;Signal;HPM_P1;HPM_P2
2022/01/28 00:03:33;;;;;;;6.50;5.90;;;;;;;5.48;65.99;98674.41;8414526;28;20382;-83
2022/01/28 00:07:36;;;;;;;6.77;6.03;;;;;;;5.39;66.30;98674.50;8417308;28;20242;-83
2022/01/28 00:11:40;;;;;;;6.70;6.10;;;;;;;5.45;65.27;98682.13;8417415;28;20241;-83
2022/01/28 00:15:56;;;;;;;6.53;5.93;;;;;;;5.39;65.14;98684.78;8419537;28;20231;-83
2022/01/28 00:20:50;;;;;;;6.70;6.00;;;;;;;5.16;65.85;98673.91;8416649;28;20237;-83
2022/01/28 00:38:04;;;;;;;6.17;5.17;;;;;;;5.35;65.50;98702.78;8415618;28;20226;-84
2022/01/28 00:42:07;;;;;;;5.07;4.67;;;;;;;5.20;65.64;98696.97;8416061;28;20238;-84
2022/01/28 00:46:10;;;;;;;5.03;4.30;;;;;;;5.22;65.60;98702.09;8415954;28;20326;-84
2022/01/28 00:50:16;;;;;;;7.73;4.67;;;;;;;5.43;65.21;98708.72;8415979;28;20230;-83
2022/01/28 00:54:19;;;;;;;4.93;4.47;;;;;;;5.58;64.38;98723.06;8415847;28;20238;-84
2022/01/28 00:58:22;;;;;;;5.30;4.80;;;;;;;5.32;65.27;98733.69;8415644;28;20233;-84
2022/01/28 01:02:25;;;;;;;5.10;4.60;;;;;;;5.42;64.99;98728.41;8415622;28;20234;-83
2022/01/28 01:06:30;;;;;;;5.60;5.10;;;;;;;5.35;65.16;98728.47;8415646;28;20243;-82
2022/01/28 01:10:34;;;;;;;5.23;4.80;;;;;;;5.59;65.02;98725.63;8414319;28;20227;-84
2022/01/28 01:14:37;;;;;;;6.67;5.97;;;;;;;5.40;65.43;98729.28;8415162;28;20234;-82
2022/01/28 01:18:48;;;;;;;5.83;5.23;;;;;;;5.48;65.87;98741.19;8415057;28;20257;-82
2022/01/28 01:23:05;;;;;;;6.03;5.43;;;;;;;5.56;65.02;98732.53;8414980;28;20239;-82
2022/01/28 01:27:08;;;;;;;6.03;5.30;;;;;;;5.55;65.87;98752.22;8414591;28;20579;-82
2022/01/28 01:31:16;;;;;;;6.40;5.37;;;;;;;5.44;65.80;98749.78;8414090;28;20238;-82
2022/01/28 01:35:19;;;;;;;6.10;5.50;;;;;;;5.43;65.82;98757.53;8414778;28;20231;-82
2022/01/28 01:39:27;;;;;;;6.10;5.30;;;;;;;5.39;65.85;98766.97;8414388;28;20237;-82
2022/01/28 01:43:42;;;;;;;6.97;5.43;;;;;;;5.52;65.03;98769.41;8414474;28;20239;-82
2022/01/28 01:52:11;;;;;;;6.37;5.60;;;;;;;5.47;65.50;98783.16;8416127;28;20214;-82
2022/01/28 01:56:19;;;;;;;7.47;6.10;;;;;;;5.35;65.37;98780.72;8416208;28;20214;-82
2022/01/28 02:00:22;;;;;;;7.20;6.03;;;;;;;5.47;65.25;98795.16;8414225;28;20234;-81
2022/01/28 02:04:24;;;;;;;8.67;6.07;;;;;;;5.51;65.14;98791.69;8413948;28;20238;-82
2022/01/28 02:08:29;;;;;;;9.07;6.87;;;;;;;5.31;65.44;98799.56;8413808;28;20229;-81
2022/01/28 02:12:46;;;;;;;9.70;6.90;;;;;;;5.46;64.94;98806.28;8413377;28;20237;-82
2022/01/28 02:16:49;;;;;;;10.27;7.47;;;;;;;5.30;65.67;98810.75;8413590;28;20419;-82
2022/01/28 02:21:01;;;;;;;8.77;7.27;;;;;;;5.43;65.26;98808.91;8413502;28;20233;-82
2022/01/28 02:25:05;;;;;;;9.20;7.33;;;;;;;5.43;65.24;98819.19;8413019;28;20234;-82
2022/01/28 02:29:12;;;;;;;9.73;7.77;;;;;;;5.20;64.92;98816.84;8413541;28;20237;-82
2022/01/28 02:33:18;;;;;;;9.13;7.77;;;;;;;5.75;63.95;98820.53;8413224;28;20253;-82
2022/01/28 02:37:23;;;;;;;10.00;7.90;;;;;;;5.77;63.48;98819.66;8413861;28;20231;-82
2022/01/28 02:41:30;;;;;;;10.10;7.27;;;;;;;5.99;62.64;98816.88;8413108;28;20420;-82
2022/01/28 02:45:34;;;;;;;7.47;6.70;;;;;;;5.66;63.73;98829.22;8412870;28;20396;-82
2022/01/28 02:49:37;;;;;;;10.17;7.37;;;;;;;6.02;62.47;98829.69;8413101;28;20298;-83
2022/01/28 02:53:47;;;;;;;9.47;6.70;;;;;;;5.84;62.79;98835.84;8413114;28;20250;-82
2022/01/28 02:58:03;;;;;;;9.43;7.23;;;;;;;5.70;63.54;98830.03;8413269;28;20269;-82
2022/01/28 03:02:09;;;;;;;7.63;6.83;;;;;;;5.90;62.83;98810.06;8415582;28;20241;-82
2022/01/28 03:06:13;;;;;;;8.53;6.97;;;;;;;5.34;64.63;98821.84;8412625;28;20230;-82
2022/01/28 03:10:31;;;;;;;8.17;6.80;;;;;;;5.46;63.84;98821.69;8411393;28;20239;-82
2022/01/28 03:14:47;;;;;;;7.53;6.80;;;;;;;5.35;64.18;98810.69;8412117;28;20269;-82
2022/01/28 03:18:54;;;;;;;7.33;6.00;;;;;;;5.42;63.78;98826.00;8412361;28;20249;-81
2022/01/28 03:22:57;;;;;;;6.03;5.30;;;;;;;5.41;64.27;98819.19;8412154;28;20231;-81
2022/01/28 03:27:06;;;;;;;8.30;5.73;;;;;;;5.77;62.68;98829.06;8412394;28;20226;-81
2022/01/28 03:31:09;;;;;;;6.13;5.53;;;;;;;5.62;62.54;98842.97;8412080;28;20253;-81
2022/01/28 03:35:14;;;;;;;8.37;6.43;;;;;;;5.70;62.82;98851.44;8415067;28;20254;-80
2022/01/28 03:39:17;;;;;;;8.80;6.70;;;;;;;5.54;63.17;98852.44;8417837;28;20226;-80
2022/01/28 03:43:22;;;;;;;9.00;7.50;;;;;;;5.61;63.08;98870.38;8417588;28;20245;-81
2022/01/28 03:47:26;;;;;;;11.23;7.43;;;;;;;5.52;63.15;98890.16;8417249;28;20235;-81
2022/01/28 03:51:29;;;;;;;8.23;7.43;;;;;;;5.37;63.42;98896.28;8417150;28;20409;-81
2022/01/28 03:55:32;;;;;;;9.17;7.70;;;;;;;5.51;63.23;98898.75;8417213;28;20227;-81
2022/01/28 03:59:36;;;;;;;11.20;7.50;;;;;;;5.78;62.40;98902.75;8417622;28;20279;-82
2022/01/28 04:03:47;;;;;;;9.20;8.10;;;;;;;5.62;63.03;98910.63;8417037;28;20234;-82
2022/01/28 04:12:11;;;;;;;11.33;8.87;;;;;;;5.65;63.03;98912.31;8416709;28;20234;-81
2022/01/28 04:16:30;;;;;;;9.87;8.30;;;;;;;5.61;63.12;98914.06;8416580;28;20425;-81
2022/01/28 04:20:33;;;;;;;8.63;6.93;;;;;;;5.74;62.90;98917.38;8416382;28;20250;-83
2022/01/28 04:24:36;;;;;;;8.83;7.57;;;;;;;5.56;63.04;98920.97;8416455;28;20415;-82
2022/01/28 04:28:39;;;;;;;10.57;8.03;;;;;;;5.63;63.28;98932.88;8416311;28;20557;-81
2022/01/28 04:32:46;;;;;;;14.47;8.73;;;;;;;5.47;63.40;98937.31;8416169;28;20235;-81
2022/01/28 04:36:59;;;;;;;9.03;8.03;;;;;;;5.58;63.11;98942.38;8416134;28;20246;-81
2022/01/28 04:41:09;;;;;;;11.07;8.70;;;;;;;5.46;63.73;98943.31;8416073;28;20227;-80
2022/01/28 04:45:19;;;;;;;11.53;8.30;;;;;;;5.36;64.21;98961.38;8415193;28;20231;-80
2022/01/28 04:49:34;;;;;;;11.43;8.17;;;;;;;5.68;63.22;98958.56;8415685;28;20411;-81
2022/01/28 04:53:54;;;;;;;9.73;8.10;;;;;;;5.64;63.41;98969.72;8415131;28;20388;-82
2022/01/28 04:58:10;;;;;;;11.57;8.03;;;;;;;5.62;63.48;98974.88;8415516;28;20230;-82
2022/01/28 05:02:39;;;;;;;11.03;8.20;;;;;;;5.64;63.59;98980.00;8415569;28;20371;-82
2022/01/28 05:11:29;;;;;;;10.47;7.10;;;;;;;5.42;63.64;98989.59;8415006;28;20560;-82
2022/01/28 05:16:10;;;;;;;8.63;6.13;;;;;;;5.59;63.67;98974.88;8414658;28;20230;-82
2022/01/28 05:25:30;;;;;;;9.17;6.13;;;;;;;5.37;63.81;98993.91;8383394;28;20230;-81
2022/01/28 05:29:26;;;;;;;7.27;5.77;;;;;;;5.40;64.09;99015.28;8414478;28;20227;-81
2022/01/28 05:33:34;;;;;;;7.33;5.30;;;;;;;5.34;63.78;99022.19;8414831;28;20530;-81
2022/01/28 05:37:37;;;;;;;7.50;5.37;;;;;;;5.47;63.28;99028.94;8438061;28;20226;-80
2022/01/28 05:41:45;;;;;;;9.30;5.97;;;;;;;5.54;63.34;99030.63;8431140;28;20227;-82
2022/01/28 05:45:51;;;;;;;8.07;5.40;;;;;;;5.64;62.56;99031.41;8413741;28;20234;-81
2022/01/28 05:49:54;;;;;;;7.17;5.27;;;;;;;5.62;62.63;99043.41;8417244;28;20262;-81
2022/01/28 05:53:58;;;;;;;11.13;5.40;;;;;;;5.70;62.36;99030.50;8413918;28;20227;-81
2022/01/28 05:58:02;;;;;;;10.60;6.10;;;;;;;5.54;62.91;99046.03;8413048;28;20236;-81
2022/01/28 06:02:05;;;;;;;8.77;5.40;;;;;;;5.67;62.01;99050.22;8431317;28;20222;-81
2022/01/28 06:06:13;;;;;;;7.73;5.07;;;;;;;5.75;61.96;99049.28;8435583;28;20241;-81
2022/01/28 06:10:18;;;;;;;9.23;6.13;;;;;;;5.60;62.16;99063.13;8427495;28;20229;-81
2022/01/28 06:14:23;;;;;;;8.00;5.07;;;;;;;5.54;62.23;99058.00;8442046;28;20244;-81
2022/01/28 06:18:25;;;;;;;10.07;4.90;;;;;;;5.48;62.35;99058.91;8446154;28;20229;-81
2022/01/28 06:22:28;;;;;;;7.97;4.67;;;;;;;5.62;61.81;99064.81;8446492;28;20226;-79
2022/01/28 06:26:31;;;;;;;7.37;5.03;;;;;;;5.84;61.44;99068.06;8445318;28;20520;-81
2022/01/28 06:30:36;;;;;;;8.87;5.40;;;;;;;5.58;61.75;99059.69;8424034;28;20579;-82
2022/01/28 06:34:39;;;;;;;6.63;4.73;;;;;;;5.63;61.76;99061.38;8394693;28;20236;-82
2022/01/28 06:38:42;;;;;;;10.53;5.10;;;;;;;5.60;61.90;99074.25;8379698;28;20242;-79
2022/01/28 06:42:46;;;;;;;8.77;5.33;;;;;;;5.46;61.79;99083.75;8405318;28;20227;-81
2022/01/28 06:46:50;;;;;;;8.57;5.23;;;;;;;5.62;61.55;99093.09;8412931;28;20235;-82
2022/01/28 06:50:54;;;;;;;8.93;5.47;;;;;;;5.54;62.06;99107.72;8412812;28;20230;-82
2022/01/28 06:54:57;;;;;;;7.80;4.63;;;;;;;5.53;62.04;99107.72;8412794;28;20226;-82
2022/01/28 06:59:00;;;;;;;7.53;4.77;;;;;;;5.55;62.31;99113.69;8412716;28;20241;-82
2022/01/28 07:03:05;;;;;;;8.33;4.10;;;;;;;5.63;61.98;99114.50;8412422;28;20230;-82
2022/01/28 07:07:09;;;;;;;9.13;4.33;;;;;;;5.54;62.72;99122.25;8412789;28;20231;-83
2022/01/28 07:11:12;;;;;;;7.40;4.60;;;;;;;5.71;61.83;99119.59;8417766;28;20229;-83
2022/01/28 07:15:15;;;;;;;9.57;4.63;;;;;;;5.75;61.49;99121.25;8419141;28;20436;-82
2022/01/28 07:19:19;;;;;;;5.57;3.60;;;;;;;5.65;61.99;99129.06;8418597;28;20237;-81
2022/01/28 07:23:23;;;;;;;9.37;4.70;;;;;;;5.57;61.94;99129.97;8418743;28;20241;-82
2022/01/28 07:27:27;;;;;;;8.37;4.47;;;;;;;5.71;61.44;99124.72;8418774;28;20230;-82
2022/01/28 07:31:32;;;;;;;7.83;3.73;;;;;;;5.64;61.56;99129.06;8418271;28;20289;-82
2022/01/28 07:35:37;;;;;;;8.53;4.50;;;;;;;5.70;61.34;99134.16;8417725;28;20264;-82
2022/01/28 07:39:40;;;;;;;8.93;4.47;;;;;;;5.73;61.13;99147.00;8417341;28;20234;-81
2022/01/28 07:43:43;;;;;;;7.10;3.80;;;;;;;5.64;61.42;99140.19;8417379;28;20235;-82
2022/01/28 07:47:46;;;;;;;9.60;4.43;;;;;;;5.41;62.40;99142.88;8417194;28;20238;-82
2022/01/28 07:51:51;;;;;;;9.60;4.87;;;;;;;5.60;61.87;99142.81;8417505;28;20223;-82
2022/01/28 07:55:54;;;;;;;10.10;4.30;;;;;;;5.55;62.00;99152.25;8417072;28;20231;-82
2022/01/28 07:59:57;;;;;;;7.10;3.90;;;;;;;5.45;62.26;99167.69;8416911;28;20226;-81
2022/01/28 08:04:01;;;;;;;9.87;4.53;;;;;;;5.84;61.71;99164.91;8417008;28;20226;-83
2022/01/28 08:08:08;;;;;;;6.37;3.47;;;;;;;6.93;57.99;99166.63;8417007;28;20253;-83
2022/01/28 08:12:11;;;;;;;6.27;3.13;;;;;;;7.73;55.67;99170.84;8415617;28;20337;-81
2022/01/28 08:16:14;;;;;;;7.43;4.03;;;;;;;8.42;54.26;99184.47;8416651;28;20414;-81
2022/01/28 08:20:17;;;;;;;6.67;3.30;;;;;;;8.69;52.34;99171.97;8415564;28;20322;-81
2022/01/28 08:24:21;;;;;;;5.23;3.27;;;;;;;8.72;52.85;99185.69;8416414;28;20236;-82
2022/01/28 08:28:25;;;;;;;7.43;3.17;;;;;;;10.02;48.24;99188.28;8416497;28;20234;-82
2022/01/28 08:32:28;;;;;;;6.93;3.53;;;;;;;10.19;48.60;99193.94;8417481;28;20231;-82
2022/01/28 08:36:31;;;;;;;10.47;3.50;;;;;;;8.84;50.76;99207.03;8416427;28;20227;-82
2022/01/28 08:40:35;;;;;;;6.50;2.87;;;;;;;8.21;52.30;99214.00;8415307;28;20218;-82
2022/01/28 08:44:38;;;;;;;9.07;3.40;;;;;;;7.73;53.78;99227.56;8415597;28;20414;-82
2022/01/28 08:48:42;;;;;;;7.07;3.10;;;;;;;7.25;55.02;99227.25;8415739;28;20270;-83
2022/01/28 08:52:46;;;;;;;9.73;3.03;;;;;;;7.00;55.44;99236.97;8416909;28;20328;-85
2022/01/28 08:56:51;;;;;;;8.70;3.10;;;;;;;6.84;56.35;99243.97;8416235;28;20284;-85
2022/01/28 09:01:11;;;;;;;9.17;3.87;;;;;;;7.20;55.82;99235.03;8416089;28;20366;-84
2022/01/28 09:05:15;;;;;;;12.67;3.40;;;;;;;6.84;56.62;99246.56;8415723;28;20235;-84
2022/01/28 09:09:19;;;;;;;9.70;3.30;;;;;;;6.88;56.46;99263.69;8415777;28;20250;-84
2022/01/28 09:13:25;;;;;;;10.87;3.30;;;;;;;6.85;56.16;99253.41;8415506;28;20265;-82
2022/01/28 09:17:29;;;;;;;7.23;2.70;;;;;;;6.65;56.03;99257.00;8415011;28;20234;-81
2022/01/28 09:21:32;;;;;;;9.40;3.03;;;;;;;6.88;56.16;99255.97;8414380;28;20226;-83
2022/01/28 09:25:35;;;;;;;11.57;4.20;;;;;;;6.91;55.85;99262.78;8414954;28;20231;-83
2022/01/28 09:29:40;;;;;;;8.10;2.67;;;;;;;6.85;55.67;99269.72;8414643;28;20430;-83
2022/01/28 09:33:43;;;;;;;11.70;3.57;;;;;;;6.94;56.25;99284.22;8414108;28;20317;-84
2022/01/28 09:37:46;;;;;;;11.27;3.07;;;;;;;6.98;55.76;99282.47;8414213;28;20238;-85
2022/01/28 09:41:51;;;;;;;10.80;3.60;;;;;;;7.09;56.25;99284.97;8414067;28;20231;-83
2022/01/28 09:45:56;;;;;;;12.30;3.50;;;;;;;6.94;55.91;99296.25;8413947;28;20230;-84
2022/01/28 09:50:00;;;;;;;9.73;2.77;;;;;;;7.24;55.81;99287.41;8414649;28;20231;-84
2022/01/28 09:54:04;;;;;;;12.53;3.87;;;;;;;7.30;55.64;99296.78;8414281;28;20259;-84
2022/01/28 09:58:07;;;;;;;12.07;3.83;;;;;;;7.23;55.97;99299.44;8414374;28;20412;-83
2022/01/28 10:02:12;;;;;;;10.07;3.10;;;;;;;7.12;55.87;99308.09;8413788;28;20231;-83
2022/01/28 10:06:15;;;;;;;7.87;2.80;;;;;;;7.01;56.12;99305.66;8418094;28;20257;-82
2022/01/28 10:10:20;;;;;;;12.70;4.50;;;;;;;7.46;55.58;99321.53;8429780;28;20285;-82
2022/01/28 10:14:26;;;;;;;11.07;3.30;;;;;;;7.20;56.22;99316.66;8428092;28;20230;-82
2022/01/28 10:18:52;;;;;;;10.27;3.27;;;;;;;7.26;56.16;99326.03;8416383;28;20234;-82
2022/01/28 10:22:58;;;;;;;10.23;2.90;;;;;;;7.22;55.71;99320.91;8413986;28;21223;-82
2022/01/28 10:27:06;;;;;;;8.57;3.13;;;;;;;7.26;55.29;99321.75;8414229;28;20231;-84
2022/01/28 10:31:09;;;;;;;9.00;3.50;;;;;;;7.12;55.86;99323.56;8439922;28;20226;-82
2022/01/28 10:35:31;;;;;;;16.47;2.77;;;;;;;10.34;64.83;99307.53;8426562;28;20270;-80
2022/01/28 10:39:40;;;;;;;9.17;3.10;;;;;;;10.10;50.06;99315.78;8446081;28;20513;-80
2022/01/28 10:43:45;;;;;;;11.83;2.97;;;;;;;8.38;51.55;99314.44;8386867;28;20234;-81
2022/01/28 10:47:53;;;;;;;10.03;3.00;;;;;;;8.13;51.94;99330.25;8435673;28;20305;-81
2022/01/28 10:52:04;;;;;;;12.03;3.03;;;;;;;7.64;52.20;99328.22;8444646;28;20446;-81
2022/01/28 10:56:12;;;;;;;12.03;4.10;;;;;;;7.49;52.81;99338.72;8453347;28;20226;-82
2022/01/28 11:00:16;;;;;;;14.30;5.73;;;;;;;7.63;52.79;99335.13;8453262;28;20226;-81
2022/01/28 11:04:20;;;;;;;13.30;3.93;;;;;;;7.59;52.17;99332.56;8453260;28;20260;-81
2022/01/28 11:08:26;;;;;;;12.57;3.10;;;;;;;7.75;52.58;99341.00;8445332;28;20226;-82
2022/01/28 11:12:29;;;;;;;10.37;2.80;;;;;;;7.47;53.31;99356.75;8409161;28;20227;-79
2022/01/28 11:16:32;;;;;;;10.03;3.00;;;;;;;7.47;53.63;99346.44;8401456;28;20211;-82
2022/01/28 11:20:41;;;;;;;11.93;2.77;;;;;;;7.68;52.93;99349.69;8404552;28;20417;-82
2022/01/28 11:25:09;;;;;;;10.03;2.90;;;;;;;7.68;52.96;99349.69;8399130;28;20548;-81
2022/01/28 11:29:14;;;;;;;14.63;3.43;;;;;;;7.29;51.85;99339.75;8415476;28;20421;-81
2022/01/28 11:33:19;;;;;;;11.27;3.90;;;;;;;7.25;52.26;99332.91;8442475;28;20233;-82
2022/01/28 11:37:26;;;;;;;8.77;2.97;;;;;;;7.34;51.37;99337.97;8437070;28;20238;-82
2022/01/28 11:41:31;;;;;;;10.57;2.57;;;;;;;7.20;51.85;99345.00;8426697;28;20541;-82
2022/01/28 11:45:42;;;;;;;14.67;3.10;;;;;;;7.01;51.62;99344.28;8418517;28;20526;-82
2022/01/28 11:49:59;;;;;;;12.87;3.07;;;;;;;7.08;51.22;99350.22;8428565;28;20553;-80
2022/01/28 11:54:04;;;;;;;9.83;3.23;;;;;;;7.15;50.65;99349.31;8441040;28;20597;-81
2022/01/28 11:58:11;;;;;;;15.67;3.33;;;;;;;7.05;50.35;99351.13;8437660;28;20235;-81
2022/01/28 12:02:17;;;;;;;13.00;2.83;;;;;;;7.21;49.65;99338.94;8425726;28;20668;-82
2022/01/28 12:06:21;;;;;;;11.23;2.73;;;;;;;7.37;48.97;99342.25;8402094;28;20231;-81
2022/01/28 12:10:25;;;;;;;11.60;3.13;;;;;;;7.38;48.49;99338.81;8386613;28;20232;-82
2022/01/28 12:15:11;;;;;;;12.90;3.10;;;;;;;7.07;48.33;99327.94;8385785;28;20230;-81
2022/01/28 12:19:19;;;;;;;9.20;2.77;;;;;;;7.23;47.26;99314.91;8376691;28;20413;-82
2022/01/28 12:23:31;;;;;;;12.43;3.57;;;;;;;7.44;52.76;99311.25;8386660;28;20231;-83
2022/01/28 12:27:34;;;;;;;13.73;3.10;;;;;;;7.37;46.72;99313.91;8384448;28;20227;-82
2022/01/28 12:31:37;;;;;;;10.20;3.10;;;;;;;7.50;47.66;99318.06;8384486;28;20235;-81
2022/01/28 12:35:43;;;;;;;11.80;3.80;;;;;;;7.52;49.10;99321.50;8383993;28;20247;-81
2022/01/28 12:39:51;;;;;;;14.00;5.47;;;;;;;7.60;50.08;99314.50;8385310;28;20257;-81
2022/01/28 12:43:54;;;;;;;9.80;3.20;;;;;;;7.52;49.96;99318.03;8418279;28;20533;-80
2022/01/28 12:47:58;;;;;;;9.47;3.00;;;;;;;7.68;49.52;99314.44;8418670;28;20234;-80
2022/01/28 12:52:05;;;;;;;15.23;3.50;;;;;;;7.63;49.75;99319.66;8418971;28;20552;-80
2022/01/28 12:56:10;;;;;;;12.13;3.20;;;;;;;7.35;49.25;99313.03;8395418;28;20239;-82
2022/01/28 13:00:14;;;;;;;12.20;3.00;;;;;;;7.43;48.97;99299.22;8383713;28;20590;-81
2022/01/28 13:04:22;;;;;;;9.93;2.87;;;;;;;7.43;49.83;99314.69;8387531;28;20369;-81
2022/01/28 13:08:28;;;;;;;11.83;3.13;;;;;;;7.48;48.81;99312.06;8400643;28;20434;-80
2022/01/28 13:12:32;;;;;;;11.37;3.13;;;;;;;7.24;49.25;99311.44;8405788;28;20229;-82
2022/01/28 13:16:37;;;;;;;12.00;3.17;;;;;;;7.41;49.29;99305.28;8416634;28;20317;-81
2022/01/28 13:20:42;;;;;;;14.47;3.07;;;;;;;7.13;50.02;99309.84;8390118;28;20239;-80
2022/01/28 13:24:51;;;;;;;11.07;3.50;;;;;;;7.31;50.13;99306.22;8383846;28;20231;-81
2022/01/28 13:29:05;;;;;;;12.73;3.70;;;;;;;7.29;49.66;99305.38;8383641;28;20330;-80
2022/01/28 13:33:10;;;;;;;10.93;2.80;;;;;;;7.38;49.48;99301.00;8383265;28;20224;-80
2022/01/28 13:37:14;;;;;;;11.83;3.50;;;;;;;7.66;49.33;99297.28;8382970;28;20235;-80
2022/01/28 13:41:24;;;;;;;10.73;3.30;;;;;;;7.42;48.59;99304.38;8396061;28;20226;-80
2022/01/28 13:45:32;;;;;;;14.33;3.10;;;;;;;7.67;48.78;99306.72;8416627;28;20646;-80
2022/01/28 13:49:36;;;;;;;11.97;2.93;;;;;;;7.81;47.46;99315.16;8416879;28;20230;-81
2022/01/28 13:58:11;;;;;;;14.07;3.43;;;;;;;7.71;47.12;99313.53;8433627;28;20230;-80
2022/01/28 14:02:16;;;;;;;12.23;3.20;;;;;;;7.34;46.37;99306.19;8431178;28;20289;-82
2022/01/28 14:06:20;;;;;;;12.03;3.27;;;;;;;7.51;46.35;99316.34;8433040;28;20223;-81
2022/01/28 14:10:38;;;;;;;9.90;3.33;;;;;;;7.65;45.92;99306.72;8427639;28;20266;-81
2022/01/28 14:14:46;;;;;;;12.80;3.50;;;;;;;7.50;46.39;99301.72;8429485;28;20223;-82
2022/01/28 14:18:50;;;;;;;14.60;5.53;;;;;;;7.66;45.84;99308.44;8424274;28;20222;-81
2022/01/28 14:22:53;;;;;;;14.57;3.60;;;;;;;7.54;46.49;99324.91;8404009;28;20250;-82
2022/01/28 14:27:06;;;;;;;12.23;3.40;;;;;;;7.57;46.35;99332.59;8380893;28;20295;-82
2022/01/28 14:31:10;;;;;;;15.43;3.37;;;;;;;7.64;46.59;99341.97;8438979;28;20226;-82
2022/01/28 14:35:18;;;;;;;12.50;3.50;;;;;;;7.83;46.45;99336.63;8448005;28;20479;-82
2022/01/28 14:39:22;;;;;;;13.80;3.90;;;;;;;7.54;46.46;99340.38;8432685;28;20237;-82
2022/01/28 14:43:25;;;;;;;14.70;3.73;;;;;;;7.55;46.33;99333.47;8433018;28;20421;-81
2022/01/28 14:47:30;;;;;;;15.77;3.90;;;;;;;7.71;46.49;99340.19;8429721;28;20353;-82
2022/01/28 14:51:34;;;;;;;13.20;3.70;;;;;;;7.48;47.00;99340.41;8429605;28;20218;-82
2022/01/28 14:55:40;;;;;;;11.73;3.93;;;;;;;7.73;46.36;99333.28;8430039;28;20850;-82
2022/01/28 14:59:44;;;;;;;12.37;3.93;;;;;;;7.74;47.26;99341.88;8430634;28;20360;-81
2022/01/28 15:03:50;;;;;;;14.37;4.13;;;;;;;7.51;47.24;99363.59;8449639;28;20234;-82
2022/01/28 15:07:53;;;;;;;12.73;4.10;;;;;;;7.59;47.34;99356.63;8452268;28;20234;-82
2022/01/28 15:11:57;;;;;;;15.60;4.43;;;;;;;7.68;46.64;99365.16;8453331;28;20226;-80
2022/01/28 15:16:00;;;;;;;14.73;4.83;;;;;;;7.77;46.24;99362.50;8449337;28;20234;-81
2022/01/28 15:20:05;;;;;;;15.40;4.60;;;;;;;7.59;46.76;99366.09;8430955;28;20233;-81
2022/01/28 15:24:08;;;;;;;14.80;4.70;;;;;;;7.61;47.22;99377.25;8435743;28;20229;-81
2022/01/28 15:28:17;;;;;;;16.53;5.77;;;;;;;7.42;47.94;99374.84;8430034;28;20403;-81
2022/01/28 15:36:41;;;;;;;14.70;4.20;;;;;;;7.41;48.21;99390.34;8399735;28;20219;-81
2022/01/28 15:40:44;;;;;;;18.60;4.97;;;;;;;7.67;48.16;99392.66;8403174;28;20333;-81
2022/01/28 15:44:48;;;;;;;15.60;4.73;;;;;;;7.62;48.26;99384.13;8387257;28;20232;-81
2022/01/28 15:48:51;;;;;;;15.07;5.20;;;;;;;7.62;48.57;99394.44;8415221;28;20246;-82
2022/01/28 15:52:57;;;;;;;12.20;4.43;;;;;;;7.50;49.68;99395.41;8449366;28;21327;-81
2022/01/28 15:57:00;;;;;;;15.00;5.87;;;;;;;7.67;49.96;99399.53;8432331;28;20233;-81
2022/01/28 16:01:03;;;;;;;17.77;6.40;;;;;;;7.70;50.01;99408.09;8436184;28;20226;-81
2022/01/28 16:05:06;;;;;;;16.20;4.50;;;;;;;7.82;49.74;99418.31;8432815;28;20225;-80
2022/01/28 16:09:11;;;;;;;15.67;5.77;;;;;;;7.86;49.96;99423.41;8433333;28;20227;-81
2022/01/28 16:13:38;;;;;;;15.83;6.00;;;;;;;7.75;50.26;99421.81;8434368;28;20222;-81
2022/01/28 16:17:41;;;;;;;17.10;5.87;;;;;;;7.81;50.82;99423.47;8426074;28;20224;-81
2022/01/28 16:21:44;;;;;;;14.87;4.27;;;;;;;7.68;51.27;99424.47;8433511;28;20232;-81
2022/01/28 16:25:51;;;;;;;18.70;4.90;;;;;;;7.61;51.50;99434.81;8431000;28;20223;-81
2022/01/28 16:29:54;;;;;;;12.53;4.37;;;;;;;7.69;51.11;99445.09;8434381;28;20566;-82
2022/01/28 16:33:58;;;;;;;13.73;4.80;;;;;;;7.66;51.47;99454.56;8440298;28;20237;-81
2022/01/28 16:38:03;;;;;;;16.33;5.80;;;;;;;7.69;51.26;99470.00;8433478;28;20413;-81
2022/01/28 16:42:10;;;;;;;14.00;4.77;;;;;;;7.70;50.89;99477.72;8428573;28;20585;-81
2022/01/28 16:46:13;;;;;;;13.27;4.67;;;;;;;7.76;51.04;99464.75;8416726;28;20231;-83
2022/01/28 16:50:16;;;;;;;18.23;6.00;;;;;;;7.78;51.01;99469.91;8417179;28;20422;-81
2022/01/28 16:54:19;;;;;;;14.43;5.20;;;;;;;7.52;50.92;99470.13;8436000;28;20245;-81
2022/01/28 16:58:24;;;;;;;14.43;5.60;;;;;;;7.55;51.28;99468.38;8416175;28;20230;-80
2022/01/28 17:02:27;;;;;;;18.47;6.10;;;;;;;7.49;50.59;99467.59;8415117;28;20224;-81
2022/01/28 17:06:33;;;;;;;15.87;6.87;;;;;;;7.75;49.75;99482.81;8415299;28;20218;-82
2022/01/28 17:10:38;;;;;;;18.00;6.07;;;;;;;7.72;49.28;99483.72;8415566;28;20337;-81
2022/01/28 17:14:43;;;;;;;17.53;7.80;;;;;;;7.86;49.51;99495.63;8415634;28;20304;-81
2022/01/28 17:18:46;;;;;;;19.93;6.80;;;;;;;7.60;49.28;99494.16;8415564;28;20564;-81
2022/01/28 17:22:50;;;;;;;19.43;7.53;;;;;;;7.83;49.40;99512.00;8415220;28;20265;-81
2022/01/28 17:26:54;;;;;;;27.70;12.63;;;;;;;7.86;49.75;99516.28;8415341;28;20506;-80
2022/01/28 17:30:58;;;;;;;20.07;8.20;;;;;;;7.60;49.24;99507.88;8414993;28;20241;-81
2022/01/28 17:35:03;;;;;;;26.77;12.47;;;;;;;7.59;49.17;99495.84;8415324;28;20242;-80
2022/01/28 17:39:09;;;;;;;20.97;9.50;;;;;;;7.44;49.46;99506.28;8415114;28;20631;-81
2022/01/28 17:43:12;;;;;;;20.87;6.90;;;;;;;7.53;48.80;99515.69;8414898;28;20556;-80
2022/01/28 17:47:16;;;;;;;17.60;8.00;;;;;;;7.68;48.87;99523.28;8427239;28;20229;-80
2022/01/28 17:51:19;;;;;;;18.10;6.57;;;;;;;7.65;48.59;99513.00;8448626;28;20226;-80
2022/01/28 17:55:24;;;;;;;21.87;7.10;;;;;;;7.56;49.06;99508.78;8448257;28;20226;-79
2022/01/28 17:59:27;;;;;;;18.87;7.27;;;;;;;7.44;48.69;99503.69;8448699;28;20241;-80
2022/01/28 18:03:31;;;;;;;21.90;8.17;;;;;;;7.62;48.67;99513.88;8448113;28;20237;-80
2022/01/28 18:07:34;;;;;;;15.83;6.17;;;;;;;7.69;48.87;99524.13;8447650;28;20218;-80
2022/01/28 18:11:37;;;;;;;19.10;7.57;;;;;;;7.66;48.98;99529.34;8423020;28;20241;-80
2022/01/28 18:15:40;;;;;;;17.93;7.43;;;;;;;7.70;48.62;99549.06;8414418;28;20529;-80
2022/01/28 18:19:45;;;;;;;20.93;8.17;;;;;;;7.65;49.09;99536.19;8414351;28;20235;-81
2022/01/28 18:23:49;;;;;;;18.07;7.03;;;;;;;7.66;48.69;99530.19;8413641;28;20242;-81
2022/01/28 18:27:52;;;;;;;17.93;7.00;;;;;;;7.72;48.78;99537.03;8414134;28;20530;-81
2022/01/28 18:31:58;;;;;;;18.13;6.90;;;;;;;7.62;49.15;99543.97;8427563;28;20390;-82
2022/01/28 18:36:03;;;;;;;21.23;6.87;;;;;;;7.53;49.17;99526.00;8433501;28;20232;-84
2022/01/28 18:40:09;;;;;;;17.10;7.33;;;;;;;7.72;49.11;99547.34;8443378;28;20427;-82
2022/01/28 18:44:17;;;;;;;16.87;5.93;;;;;;;7.59;49.58;99552.56;8415963;28;20226;-81
2022/01/28 18:48:20;;;;;;;13.50;5.97;;;;;;;7.66;49.76;99548.25;8426869;28;20402;-82
2022/01/28 18:52:24;;;;;;;19.90;6.23;;;;;;;7.56;49.48;99529.41;8426786;28;20227;-81
2022/01/28 18:56:28;;;;;;;14.20;5.67;;;;;;;7.64;49.50;99545.66;8413755;28;20249;-82
2022/01/28 19:00:31;;;;;;;16.93;6.00;;;;;;;7.68;49.51;99549.09;8413540;28;20234;-81
2022/01/28 19:04:33;;;;;;;19.73;6.43;;;;;;;7.64;49.78;99553.41;8413447;28;20230;-80
2022/01/28 19:08:38;;;;;;;18.43;6.00;;;;;;;7.59;49.87;99552.56;8419867;28;20517;-81
2022/01/28 19:12:41;;;;;;;15.23;5.60;;;;;;;7.64;50.06;99555.97;8430506;28;20222;-81
2022/01/28 19:16:44;;;;;;;19.67;5.77;;;;;;;7.62;50.10;99560.28;8428624;28;20529;-80
2022/01/28 19:20:49;;;;;;;18.07;5.17;;;;;;;7.67;49.91;99567.97;8437510;28;20414;-82
2022/01/28 19:24:54;;;;;;;16.17;5.37;;;;;;;7.56;49.77;99565.50;8419044;28;20230;-83
2022/01/28 19:28:57;;;;;;;16.63;5.73;;;;;;;7.60;49.61;99567.19;8418759;28;20227;-83
2022/01/28 19:33:02;;;;;;;16.43;6.17;;;;;;;7.63;49.61;99566.31;8419040;28;20234;-83
2022/01/28 19:37:05;;;;;;;23.40;7.97;;;;;;;7.56;49.32;99570.66;8419163;28;20540;-82
2022/01/28 19:41:10;;;;;;;17.30;7.00;;;;;;;7.68;49.47;99568.88;8422266;28;20242;-83
2022/01/28 19:45:18;;;;;;;16.00;5.43;;;;;;;7.61;49.87;99575.78;8431569;28;20249;-82
2022/01/28 19:49:21;;;;;;;18.53;6.50;;;;;;;7.58;49.37;99570.66;8430698;28;20238;-84
2022/01/28 19:53:24;;;;;;;14.83;6.10;;;;;;;7.49;49.17;99560.41;8421038;28;20227;-83
2022/01/28 19:57:28;;;;;;;20.57;5.87;;;;;;;7.54;48.95;99562.06;8418442;28;20467;-84
2022/01/28 20:01:31;;;;;;;14.33;5.60;;;;;;;7.50;49.54;99565.56;8417538;28;20413;-83
2022/01/28 20:05:35;;;;;;;17.40;4.90;;;;;;;7.46;49.27;99560.41;8418235;28;20439;-84